Bethel, New York
Current Conditions -  °F | °C
As of 10:35 AM on Saturday 22 Nov 2014 (Local Time) from KMSV Reporting Station
Clear Clear  
Wind Chill: 20°   Ceiling: Unl
Heat Index: 28°   Visibility: 10mi
Dew Point: 10°   Wind: 9mph
Humidity: 47%   Direction: 260°W
Pressure: 30.31"   Gusts: NA
Location:  41.68°N, 74.86°W
Report Text: KMSV 221535Z AUTO 26008KT 10SM CLR M02/M12 A3031 RMK AO1
Loading
Personal Weather Stations






























Interactive Weather Map New forecast layout! Learn more

10-Day Weather Forecast

Advertisements
Track Severe Weather on mobile